createdAt,value
2017-12-15T00:00:23.630Z,7.47
2017-12-15T00:02:49.512Z,5.70
2017-12-15T00:05:15.362Z,7.10
2017-12-15T00:07:41.206Z,6.67
2017-12-15T00:10:07.067Z,5.73
2017-12-15T00:12:36.790Z,6.07
2017-12-15T00:15:02.652Z,4.82
2017-12-15T00:17:31.660Z,3.73
2017-12-15T00:19:57.598Z,3.78
2017-12-15T00:22:25.240Z,3.67
2017-12-15T00:24:51.150Z,3.65
2017-12-15T00:27:20.166Z,2.80
2017-12-15T00:29:46.074Z,2.22
2017-12-15T00:32:11.941Z,3.97
2017-12-15T00:34:37.819Z,2.70
2017-12-15T00:37:03.679Z,1.70
2017-12-15T00:39:32.957Z,2.90
2017-12-15T00:41:58.804Z,3.03
2017-12-15T00:44:26.629Z,2.23
2017-12-15T00:46:52.484Z,3.67
2017-12-15T00:49:22.348Z,2.40
2017-12-15T00:51:48.295Z,2.35
2017-12-15T00:54:16.163Z,2.93
2017-12-15T00:56:42.034Z,2.28
2017-12-15T00:59:11.800Z,2.07
2017-12-15T01:01:37.673Z,3.17
2017-12-15T01:04:05.468Z,3.07
2017-12-15T01:06:31.317Z,2.78
2017-12-15T01:08:57.231Z,3.43
2017-12-15T01:11:23.161Z,3.20
2017-12-15T01:13:49.050Z,3.10
2017-12-15T01:16:16.725Z,2.47
2017-12-15T01:18:42.613Z,2.90
2017-12-15T01:21:12.311Z,4.70
2017-12-15T01:23:38.181Z,2.00
2017-12-15T01:26:06.968Z,2.13
2017-12-15T01:28:32.888Z,1.75
2017-12-15T01:31:00.645Z,3.30
2017-12-15T01:33:26.559Z,2.22
2017-12-15T01:35:55.063Z,2.47
2017-12-15T01:38:20.939Z,4.35
2017-12-15T01:43:17.917Z,5.15
2017-12-15T01:45:44.075Z,2.70
2017-12-15T01:48:09.998Z,1.37
2017-12-15T01:50:35.827Z,2.00
2017-12-15T01:53:02.271Z,2.60
2017-12-15T01:55:28.138Z,2.40
2017-12-15T01:57:58.073Z,1.87
2017-12-15T02:00:23.953Z,2.00
2017-12-15T02:02:51.785Z,1.53
2017-12-15T02:05:17.661Z,1.35
2017-12-15T02:07:47.529Z,0.97
2017-12-15T02:10:13.409Z,0.80
2017-12-15T02:12:42.431Z,1.00
2017-12-15T02:15:08.279Z,0.80
2017-12-15T02:17:37.243Z,0.70
2017-12-15T02:20:03.130Z,0.60
2017-12-15T02:22:28.981Z,0.70
2017-12-15T02:24:54.856Z,0.70
2017-12-15T02:27:20.861Z,0.60
2017-12-15T02:29:47.785Z,0.70
2017-12-15T02:32:13.647Z,1.17
2017-12-15T02:34:43.504Z,1.17
2017-12-15T02:37:09.376Z,0.70
2017-12-15T02:39:37.203Z,0.70
2017-12-15T02:42:03.105Z,0.70
2017-12-15T02:44:32.893Z,0.80
2017-12-15T02:46:58.769Z,2.05
2017-12-15T02:49:26.565Z,2.20
2017-12-15T02:51:52.475Z,0.70
2017-12-15T02:54:21.411Z,1.07
2017-12-15T02:56:47.295Z,0.60
2017-12-15T02:59:13.136Z,1.13
2017-12-15T03:01:38.999Z,0.80
2017-12-15T03:04:04.856Z,0.60
2017-12-15T03:06:32.612Z,0.80
2017-12-15T03:08:58.517Z,0.70
2017-12-15T03:11:27.209Z,2.40
2017-12-15T03:13:53.096Z,0.60
2017-12-15T03:16:22.041Z,0.70
2017-12-15T03:18:47.941Z,0.70
2017-12-15T03:21:16.593Z,0.70
2017-12-15T03:23:42.467Z,3.75
2017-12-15T03:26:11.416Z,1.00
2017-12-15T03:28:37.298Z,0.60
2017-12-15T03:31:06.802Z,0.70
2017-12-15T03:33:32.660Z,0.90
2017-12-15T03:35:58.542Z,1.43
2017-12-15T03:38:24.447Z,0.90
2017-12-15T03:40:50.319Z,0.70
2017-12-15T03:43:19.449Z,3.97
2017-12-15T03:45:46.153Z,2.03
2017-12-15T03:48:13.234Z,0.60
2017-12-15T03:50:39.134Z,0.70
2017-12-15T03:53:08.979Z,0.70
2017-12-15T03:55:34.835Z,0.80
2017-12-15T03:58:03.737Z,0.80
2017-12-15T04:00:29.594Z,0.80
2017-12-15T04:02:58.606Z,0.87
2017-12-15T04:05:24.494Z,2.15
2017-12-15T04:07:52.207Z,1.13
2017-12-15T04:10:18.127Z,0.70
2017-12-15T04:12:43.987Z,0.80
2017-12-15T04:15:09.856Z,0.70
2017-12-15T04:17:35.781Z,0.70
2017-12-15T04:20:05.032Z,0.70
2017-12-15T04:22:30.916Z,0.80
2017-12-15T04:24:58.599Z,1.00
2017-12-15T04:27:24.464Z,1.77
2017-12-15T04:29:54.310Z,1.23
2017-12-15T04:32:20.193Z,2.50
2017-12-15T04:34:49.099Z,0.70
2017-12-15T04:37:14.977Z,5.72
2017-12-15T04:39:42.914Z,1.20
2017-12-15T04:42:08.771Z,1.17
2017-12-15T04:44:38.576Z,0.70
2017-12-15T04:47:04.496Z,0.70
2017-12-15T04:49:30.370Z,1.30
2017-12-15T04:51:56.269Z,0.60
2017-12-15T04:54:22.165Z,0.60
2017-12-15T04:56:49.249Z,1.47
2017-12-15T04:59:15.169Z,1.98
2017-12-15T05:01:44.967Z,0.80
2017-12-15T05:04:10.849Z,0.65
2017-12-15T05:06:38.608Z,0.70
2017-12-15T05:09:04.505Z,0.95
2017-12-15T05:11:34.333Z,0.60
2017-12-15T05:14:00.238Z,0.70
2017-12-15T05:16:28.047Z,1.70
2017-12-15T05:18:53.959Z,3.15
2017-12-15T05:21:23.719Z,0.60
2017-12-15T05:23:49.622Z,1.27
2017-12-15T05:26:15.531Z,0.70
2017-12-15T05:28:41.409Z,0.70
2017-12-15T05:31:07.284Z,0.70
2017-12-15T05:33:34.482Z,0.70
2017-12-15T05:36:00.378Z,0.70
2017-12-15T05:38:29.295Z,0.83
2017-12-15T05:40:55.206Z,0.75
2017-12-15T05:43:24.157Z,1.23
2017-12-15T05:45:50.078Z,3.42
2017-12-15T05:48:17.704Z,1.17
2017-12-15T05:50:43.535Z,1.87
2017-12-15T05:55:40.366Z,1.00
2017-12-15T05:58:07.671Z,2.13
2017-12-15T06:00:33.532Z,2.05
2017-12-15T06:02:59.417Z,3.87
2017-12-15T06:05:25.267Z,2.30
2017-12-15T06:07:51.169Z,1.20
2017-12-15T06:10:19.476Z,0.83
2017-12-15T06:12:46.090Z,4.40
2017-12-15T06:15:14.787Z,2.87
2017-12-15T06:17:40.633Z,10.35
2017-12-15T06:20:09.511Z,1.83
2017-12-15T06:22:35.407Z,0.93
2017-12-15T06:25:04.073Z,0.80
2017-12-15T06:27:29.933Z,0.90
2017-12-15T06:29:59.722Z,2.00
2017-12-15T06:32:25.652Z,4.12
2017-12-15T06:34:53.545Z,2.10
2017-12-15T06:37:19.439Z,1.60
2017-12-15T06:39:45.340Z,0.70
2017-12-15T06:42:11.218Z,1.03
2017-12-15T06:44:37.156Z,1.23
2017-12-15T06:47:06.129Z,0.90
2017-12-15T06:49:32.037Z,2.80
2017-12-15T06:51:59.902Z,3.43
2017-12-15T06:54:25.822Z,0.95
2017-12-15T06:56:55.632Z,1.30
2017-12-15T06:59:21.499Z,5.25
2017-12-15T07:01:50.386Z,1.57
2017-12-15T07:04:16.232Z,1.30
2017-12-15T07:06:43.328Z,3.03
2017-12-15T07:09:09.232Z,1.70
2017-12-15T07:11:38.117Z,1.43
2017-12-15T07:14:03.925Z,2.65
2017-12-15T07:16:29.744Z,5.17
2017-12-15T07:18:57.430Z,3.03
2017-12-15T07:21:23.399Z,1.05
2017-12-15T07:23:49.748Z,3.00
2017-12-15T07:26:15.687Z,2.75
2017-12-15T07:28:44.398Z,2.20
2017-12-15T07:31:10.224Z,6.85
2017-12-15T07:33:40.024Z,1.43
2017-12-15T07:36:05.864Z,1.77
2017-12-15T07:38:35.169Z,1.20
2017-12-15T07:41:01.049Z,0.90
2017-12-15T07:43:29.987Z,6.20
2017-12-15T07:45:55.845Z,3.05
2017-12-15T07:48:23.556Z,1.10
2017-12-15T07:50:49.384Z,1.08
2017-12-15T07:53:15.200Z,4.23
2017-12-15T07:55:41.013Z,1.53
2017-12-15T07:58:06.865Z,3.27
2017-12-15T08:00:36.540Z,1.67
2017-12-15T08:03:02.376Z,3.55
2017-12-15T08:05:30.259Z,5.07
2017-12-15T08:07:56.070Z,5.35
2017-12-15T08:10:25.080Z,2.70
2017-12-15T08:12:50.949Z,2.30
2017-12-15T08:15:19.955Z,3.40
2017-12-15T08:17:45.818Z,1.70
2017-12-15T08:20:14.742Z,1.63
2017-12-15T08:22:40.595Z,1.40
2017-12-15T08:25:09.489Z,3.80
2017-12-15T08:27:35.349Z,2.60
2017-12-15T08:30:01.176Z,4.77
2017-12-15T08:32:27.036Z,2.30
2017-12-15T08:34:52.877Z,2.90
2017-12-15T08:37:22.112Z,3.87
2017-12-15T08:39:47.987Z,1.60
2017-12-15T08:42:14.938Z,3.97
2017-12-15T08:44:40.817Z,2.62
2017-12-15T08:47:10.399Z,3.60
2017-12-15T08:49:36.281Z,1.85
2017-12-15T08:52:06.886Z,2.53
2017-12-15T08:54:32.955Z,1.33
2017-12-15T08:56:59.769Z,4.50
2017-12-15T08:59:25.629Z,1.35
2017-12-15T09:01:58.044Z,1.83
2017-12-15T09:04:24.080Z,1.23
2017-12-15T09:06:49.935Z,3.30
2017-12-15T09:09:15.806Z,3.67
2017-12-15T09:11:41.715Z,2.03
2017-12-15T09:14:07.585Z,11.27
2017-12-15T09:16:33.438Z,3.33
2017-12-15T09:19:00.944Z,3.47
2017-12-15T09:21:26.783Z,3.50
2017-12-15T09:23:56.553Z,2.50
2017-12-15T09:26:22.437Z,3.47
2017-12-15T09:28:51.313Z,1.23
2017-12-15T09:31:17.892Z,8.27
2017-12-15T09:33:45.726Z,3.65
2017-12-15T09:36:12.165Z,7.00
2017-12-15T09:38:39.774Z,2.10
2017-12-15T09:41:05.676Z,3.42
2017-12-15T09:43:31.500Z,1.73
2017-12-15T09:45:57.329Z,4.43
2017-12-15T09:48:23.337Z,7.83
2017-12-15T09:50:50.815Z,2.80
2017-12-15T09:53:16.695Z,10.02
2017-12-15T09:55:46.176Z,4.63
2017-12-15T09:58:12.075Z,7.75
2017-12-15T10:00:40.119Z,4.10
2017-12-15T10:03:05.999Z,16.98
2017-12-15T10:05:34.925Z,8.60
2017-12-15T10:08:00.992Z,3.08
2017-12-15T10:10:30.050Z,4.40
2017-12-15T10:12:56.212Z,1.73
2017-12-15T10:15:25.833Z,6.07
2017-12-15T10:17:51.657Z,9.48
2017-12-15T10:20:17.481Z,8.13
2017-12-15T10:22:43.598Z,4.10
2017-12-15T10:25:09.456Z,3.25
2017-12-15T10:27:36.927Z,5.40
2017-12-15T10:30:02.792Z,8.85
2017-12-15T10:32:31.749Z,2.90
2017-12-15T10:34:57.479Z,6.45
2017-12-15T10:37:26.534Z,2.97
2017-12-15T10:39:52.357Z,5.57
2017-12-15T10:42:21.237Z,2.07
2017-12-15T10:44:47.067Z,2.00
2017-12-15T10:47:16.867Z,5.37
2017-12-15T10:49:42.738Z,5.40
2017-12-15T10:52:11.570Z,7.60
2017-12-15T10:54:37.377Z,6.47
2017-12-15T10:57:03.236Z,3.30
2017-12-15T10:59:29.093Z,4.43
2017-12-15T11:01:54.923Z,2.40
2017-12-15T11:04:21.506Z,2.60
2017-12-15T11:06:47.329Z,5.78
2017-12-15T11:09:16.879Z,4.73
2017-12-15T11:11:42.731Z,10.68
2017-12-15T11:14:12.418Z,6.37
2017-12-15T11:16:38.267Z,1.85
2017-12-15T11:19:07.258Z,2.47
2017-12-15T11:21:33.112Z,5.43
2017-12-15T11:24:00.868Z,2.70
2017-12-15T11:26:26.713Z,3.50
2017-12-15T11:28:55.732Z,2.90
2017-12-15T11:31:21.582Z,3.35
2017-12-15T11:33:47.457Z,2.10
2017-12-15T11:36:13.351Z,4.60
2017-12-15T11:38:39.200Z,1.47
2017-12-15T11:41:08.549Z,1.40
2017-12-15T11:43:34.411Z,1.00
2017-12-15T11:46:03.379Z,1.83
2017-12-15T11:48:29.207Z,1.45
2017-12-15T11:50:58.108Z,1.00
2017-12-15T11:53:23.958Z,2.58
2017-12-15T11:55:51.722Z,5.13
2017-12-15T11:58:17.599Z,5.68
2017-12-15T12:00:47.411Z,1.33
2017-12-15T12:03:13.262Z,2.80
2017-12-15T12:05:42.212Z,0.80
2017-12-15T12:08:08.096Z,1.33
2017-12-15T12:10:33.954Z,1.23
2017-12-15T12:12:59.787Z,0.70
2017-12-15T12:15:25.664Z,2.10
2017-12-15T12:17:52.717Z,0.90
2017-12-15T12:20:18.593Z,2.20
2017-12-15T12:22:47.592Z,1.40
2017-12-15T12:25:13.462Z,1.30
2017-12-15T12:27:42.344Z,1.43
2017-12-15T12:30:08.182Z,1.70
2017-12-15T12:32:37.951Z,2.83
2017-12-15T12:35:03.788Z,13.88
2017-12-15T12:37:32.706Z,2.77
2017-12-15T12:39:58.572Z,5.72
2017-12-15T12:42:27.564Z,4.27
2017-12-15T12:44:53.406Z,1.98
2017-12-15T12:47:19.242Z,2.40
2017-12-15T12:49:45.119Z,1.47
2017-12-15T12:52:11.015Z,2.00
2017-12-15T12:54:37.872Z,1.67
2017-12-15T12:57:03.685Z,9.98
2017-12-15T12:59:32.543Z,2.40
2017-12-15T13:01:58.385Z,0.90
2017-12-15T13:04:27.598Z,1.53
2017-12-15T13:06:53.445Z,1.20
2017-12-15T13:09:22.486Z,2.77
2017-12-15T13:11:48.394Z,4.85
2017-12-15T13:14:17.159Z,4.77
2017-12-15T13:16:43.002Z,1.62
2017-12-15T13:19:12.014Z,0.80
2017-12-15T13:21:37.850Z,0.80
2017-12-15T13:24:03.716Z,1.47
2017-12-15T13:26:29.594Z,1.20
2017-12-15T13:28:55.400Z,1.00
2017-12-15T13:31:22.975Z,1.00
2017-12-15T13:33:48.891Z,2.90
2017-12-15T13:36:18.694Z,1.57
2017-12-15T13:38:44.548Z,3.08
2017-12-15T13:41:12.352Z,2.50
2017-12-15T13:43:38.214Z,2.87
2017-12-15T13:46:08.030Z,10.90
2017-12-15T13:48:33.900Z,2.55
2017-12-15T13:51:01.559Z,4.13
2017-12-15T13:53:27.422Z,3.72
2017-12-15T13:55:56.463Z,4.50
2017-12-15T13:58:22.354Z,2.78
2017-12-15T14:00:48.247Z,2.63
2017-12-15T14:03:14.123Z,3.23
2017-12-15T14:05:40.002Z,2.43
2017-12-15T14:08:09.635Z,1.73
2017-12-15T14:10:35.472Z,1.80
2017-12-15T14:13:04.451Z,1.10
2017-12-15T14:15:30.349Z,1.42
2017-12-15T14:17:58.050Z,1.80
2017-12-15T14:20:23.914Z,4.32
2017-12-15T14:22:53.633Z,1.33
2017-12-15T14:25:19.518Z,2.17
2017-12-15T14:27:48.665Z,3.43
2017-12-15T14:30:14.606Z,7.20
2017-12-15T14:32:42.376Z,8.43
2017-12-15T14:35:08.285Z,8.68
2017-12-15T14:37:34.143Z,4.30
2017-12-15T14:40:00.023Z,1.83
2017-12-15T14:42:25.944Z,5.37
2017-12-15T14:44:54.854Z,8.80
2017-12-15T14:47:20.713Z,12.90
2017-12-15T14:49:48.490Z,4.87
2017-12-15T14:52:14.243Z,8.80
2017-12-15T14:54:43.360Z,4.80
2017-12-15T14:57:09.225Z,4.70
2017-12-15T14:59:38.378Z,8.90
2017-12-15T15:02:04.289Z,3.22
2017-12-15T15:04:31.987Z,7.13
2017-12-15T15:06:57.842Z,6.03
2017-12-15T15:11:55.302Z,4.72
2017-12-15T15:14:21.194Z,10.40
2017-12-15T15:16:47.022Z,12.60
2017-12-15T15:19:12.848Z,4.07
2017-12-15T15:21:38.666Z,5.90
2017-12-15T15:24:04.560Z,4.63
2017-12-15T15:26:34.547Z,5.20
2017-12-15T15:29:00.388Z,5.80
2017-12-15T15:31:28.156Z,7.77
2017-12-15T15:33:53.984Z,1.90
2017-12-15T15:36:23.063Z,4.43
2017-12-15T15:38:48.972Z,7.78
2017-12-15T15:41:18.834Z,5.50
2017-12-15T15:43:44.746Z,3.00
2017-12-15T15:46:12.279Z,1.30
2017-12-15T15:48:38.200Z,4.10
2017-12-15T15:51:04.074Z,2.80
2017-12-15T15:53:29.953Z,6.40
2017-12-15T15:55:55.858Z,6.53
2017-12-15T15:58:25.336Z,6.53
2017-12-15T16:00:51.289Z,1.80
2017-12-15T16:03:18.699Z,5.97
2017-12-15T16:05:44.529Z,2.67
2017-12-15T16:08:13.127Z,4.30
2017-12-15T16:10:39.064Z,7.93
2017-12-15T16:13:08.703Z,10.60
2017-12-15T16:15:34.623Z,6.53
2017-12-15T16:18:03.922Z,7.70
2017-12-15T16:20:29.822Z,8.57
2017-12-15T16:22:57.428Z,16.37
2017-12-15T16:25:23.328Z,13.52
2017-12-15T16:27:49.251Z,14.20
2017-12-15T16:30:15.161Z,6.83
2017-12-15T16:32:41.076Z,5.27
2017-12-15T16:35:10.587Z,7.47
2017-12-15T16:37:36.477Z,5.12
2017-12-15T16:40:04.168Z,7.83
2017-12-15T16:42:30.037Z,2.65
2017-12-15T16:44:59.169Z,4.10
2017-12-15T16:47:25.065Z,2.92
2017-12-15T16:49:54.115Z,4.97
2017-12-15T16:52:20.030Z,3.72
2017-12-15T16:54:49.839Z,6.40
2017-12-15T16:57:15.760Z,4.07
2017-12-15T16:59:43.627Z,2.50
2017-12-15T17:02:09.606Z,4.70
2017-12-15T17:04:35.447Z,6.03
2017-12-15T17:07:01.360Z,7.73
2017-12-15T17:09:27.267Z,3.67
2017-12-15T17:11:56.451Z,5.30
2017-12-15T17:14:22.352Z,8.85
2017-12-15T17:16:50.047Z,8.90
2017-12-15T17:19:15.937Z,15.02
2017-12-15T17:21:45.632Z,6.20
2017-12-15T17:24:11.526Z,6.62
2017-12-15T17:26:39.298Z,7.83
2017-12-15T17:29:05.241Z,11.45
2017-12-15T17:31:35.071Z,7.67
2017-12-15T17:34:00.952Z,9.23
2017-12-15T17:36:29.904Z,10.00
2017-12-15T17:41:46.236Z,8.85
2017-12-15T17:44:12.070Z,9.27
2017-12-15T17:46:37.933Z,12.40
2017-12-15T17:49:03.765Z,15.07
2017-12-15T17:51:29.617Z,9.00
2017-12-15T17:53:55.455Z,19.20
2017-12-15T17:56:21.308Z,19.03
2017-12-15T17:58:47.146Z,9.33
2017-12-15T18:01:13.007Z,5.17
2017-12-15T18:03:38.862Z,6.87
2017-12-15T18:06:04.752Z,8.90
2017-12-15T18:08:30.607Z,12.23
2017-12-15T18:10:56.424Z,21.27
2017-12-15T18:13:22.273Z,8.13
2017-12-15T18:15:48.119Z,5.73
2017-12-15T18:18:13.930Z,8.40
2017-12-15T18:20:39.826Z,5.53
2017-12-15T18:23:05.650Z,6.20
2017-12-15T18:25:31.466Z,11.70
2017-12-15T18:27:57.326Z,13.40
2017-12-15T18:30:23.190Z,12.03
2017-12-15T18:32:49.037Z,11.47
2017-12-15T18:35:14.891Z,8.60
2017-12-15T18:37:40.764Z,15.57
2017-12-15T18:40:09.622Z,6.20
2017-12-15T18:42:35.473Z,15.70
2017-12-15T18:45:04.922Z,12.03
2017-12-15T18:47:30.744Z,13.88
2017-12-15T18:50:00.079Z,8.40
2017-12-15T18:52:25.931Z,9.25
2017-12-15T18:54:51.854Z,9.23
2017-12-15T18:57:17.678Z,8.97
2017-12-15T18:59:43.511Z,10.80
2017-12-15T19:02:11.014Z,6.70
2017-12-15T19:04:36.925Z,3.55
2017-12-15T19:07:05.781Z,9.97
2017-12-15T19:09:31.651Z,5.28
2017-12-15T19:12:01.377Z,13.57
2017-12-15T19:14:27.249Z,10.45
2017-12-15T19:16:56.195Z,6.40
2017-12-15T19:19:22.063Z,9.82
2017-12-15T19:21:51.071Z,12.93
2017-12-15T19:24:16.936Z,13.62
2017-12-15T19:26:44.707Z,11.27
2017-12-15T19:29:10.560Z,7.45
2017-12-15T19:31:36.421Z,12.03
2017-12-15T19:34:02.222Z,13.50
2017-12-15T19:36:28.111Z,17.73
2017-12-15T19:38:57.407Z,11.50
2017-12-15T19:41:23.322Z,9.75
2017-12-15T19:43:52.222Z,24.77
2017-12-15T19:46:18.084Z,5.28
2017-12-15T19:48:45.856Z,10.47
2017-12-15T19:51:11.742Z,7.40
2017-12-15T19:53:41.496Z,18.77
2017-12-15T19:56:07.324Z,11.95
2017-12-15T19:58:36.296Z,6.73
2017-12-15T20:01:02.181Z,8.13
2017-12-15T20:03:30.061Z,7.27
2017-12-15T20:05:55.895Z,9.93
2017-12-15T20:08:21.723Z,5.73
2017-12-15T20:10:47.618Z,16.20
2017-12-15T20:13:13.522Z,6.30
2017-12-15T20:15:41.045Z,7.23
2017-12-15T20:18:06.890Z,4.25
2017-12-15T20:20:36.293Z,17.23
2017-12-15T20:23:02.201Z,5.22
2017-12-15T20:25:30.522Z,14.07
2017-12-15T20:27:56.417Z,6.95
2017-12-15T20:30:25.444Z,6.73
2017-12-15T20:32:51.326Z,9.18
2017-12-15T20:35:20.210Z,8.53
2017-12-15T20:37:46.057Z,19.67
2017-12-15T20:40:15.080Z,9.40
2017-12-15T20:42:40.905Z,8.23
2017-12-15T20:45:06.794Z,7.97
2017-12-15T20:47:32.660Z,10.30
2017-12-15T20:49:58.492Z,10.90
2017-12-15T20:52:26.088Z,11.73
2017-12-15T20:54:51.989Z,15.23
2017-12-15T20:57:21.658Z,10.40
2017-12-15T20:59:47.517Z,19.35
2017-12-15T21:02:16.506Z,17.80
2017-12-15T21:04:42.372Z,9.45
2017-12-15T21:07:11.243Z,27.47
2017-12-15T21:09:37.109Z,8.38
2017-12-15T21:12:06.789Z,6.20
2017-12-15T21:14:32.642Z,10.88
2017-12-15T21:17:01.698Z,9.57
2017-12-15T21:19:27.541Z,13.00
2017-12-15T21:21:53.360Z,11.87
2017-12-15T21:24:19.186Z,5.80
2017-12-15T21:26:45.041Z,10.87
2017-12-15T21:29:12.408Z,13.00
2017-12-15T21:31:38.253Z,8.80
2017-12-15T21:34:08.024Z,5.90
2017-12-15T21:36:33.879Z,10.15
2017-12-15T21:39:02.805Z,9.23
2017-12-15T21:41:28.634Z,6.53
2017-12-15T21:43:57.685Z,15.40
2017-12-15T21:46:23.554Z,9.07
2017-12-15T21:48:50.641Z,12.20
2017-12-15T21:51:16.478Z,11.10
2017-12-15T21:53:45.173Z,6.30
2017-12-15T21:56:11.049Z,4.47
2017-12-15T21:58:36.874Z,12.10
2017-12-15T22:01:02.711Z,18.73
2017-12-15T22:03:28.525Z,15.63
2017-12-15T22:05:58.357Z,5.90
2017-12-15T22:08:24.192Z,6.37
2017-12-15T22:10:53.074Z,7.80
2017-12-15T22:13:18.920Z,10.05
2017-12-15T22:15:46.772Z,5.93
2017-12-15T22:18:12.625Z,8.32
2017-12-15T22:20:41.190Z,15.30
2017-12-15T22:23:07.036Z,9.90
2017-12-15T22:25:35.710Z,13.90
2017-12-15T22:28:01.586Z,12.70
2017-12-15T22:30:30.992Z,16.53
2017-12-15T22:32:56.842Z,9.35
2017-12-15T22:35:22.678Z,7.20
2017-12-15T22:37:48.537Z,11.90
2017-12-15T22:40:14.391Z,8.70
2017-12-15T22:42:41.941Z,8.00
2017-12-15T22:45:07.819Z,7.62
2017-12-15T22:47:34.379Z,12.60
2017-12-15T22:50:00.225Z,10.30
2017-12-15T22:52:26.049Z,8.83
2017-12-15T22:54:54.011Z,9.90
2017-12-15T22:57:19.899Z,6.22
2017-12-15T22:59:48.851Z,8.00
2017-12-15T23:02:14.681Z,17.00
2017-12-15T23:04:43.628Z,13.20
2017-12-15T23:07:09.493Z,8.73
2017-12-15T23:09:38.377Z,7.83
2017-12-15T23:12:04.257Z,7.78
2017-12-15T23:14:33.173Z,8.23
2017-12-15T23:16:59.025Z,13.43
2017-12-15T23:19:27.673Z,10.50
2017-12-15T23:21:53.528Z,14.80
2017-12-15T23:24:22.524Z,11.33
2017-12-15T23:26:48.361Z,8.43
2017-12-15T23:29:17.471Z,15.70
2017-12-15T23:31:43.312Z,12.02
2017-12-15T23:34:12.471Z,7.93
2017-12-15T23:36:38.345Z,15.80
2017-12-15T23:39:08.097Z,10.53
2017-12-15T23:44:05.425Z,11.15
2017-12-15T23:46:31.251Z,12.47
2017-12-15T23:48:57.106Z,18.77
2017-12-15T23:51:22.966Z,5.23
2017-12-15T23:53:48.807Z,9.30
2017-12-15T23:56:26.840Z,13.37
2017-12-15T23:58:52.648Z,13.02
